createdAt,value
2022-08-22T00:02:06.458Z,24.29
2022-08-22T00:02:59.341Z,24.95
2022-08-22T00:08:01.954Z,24.57
2022-08-22T00:13:27.147Z,25.00
2022-08-22T00:18:47.832Z,23.58
2022-08-22T00:24:19.883Z,22.97
2022-08-22T00:29:40.046Z,23.59
2022-08-22T00:35:28.342Z,24.60
2022-08-22T00:40:55.410Z,24.47
2022-08-22T00:46:25.094Z,23.76
2022-08-22T00:51:49.466Z,22.76
2022-08-22T00:57:17.113Z,22.61
2022-08-22T01:02:52.860Z,23.34
2022-08-22T01:08:24.315Z,24.13
2022-08-22T01:13:45.609Z,24.15
2022-08-22T01:19:06.734Z,23.12
2022-08-22T01:24:24.158Z,21.78
2022-08-22T01:29:54.409Z,21.26
2022-08-22T01:35:45.067Z,22.77
2022-08-22T01:40:54.270Z,23.56
2022-08-22T01:46:22.669Z,23.53
2022-08-22T01:51:38.068Z,22.88
2022-08-22T01:56:46.840Z,22.86
2022-08-22T02:02:11.051Z,23.54
2022-08-22T02:07:32.280Z,23.00
2022-08-22T02:13:12.584Z,22.32
2022-08-22T02:18:31.206Z,22.31
2022-08-22T02:23:55.520Z,23.09
2022-08-22T02:29:10.637Z,23.39
2022-08-22T02:34:31.253Z,23.64
2022-08-22T02:40:05.612Z,23.37
2022-08-22T02:45:44.958Z,22.65
2022-08-22T02:50:57.409Z,22.34
2022-08-22T02:56:11.569Z,21.54
2022-08-22T03:01:29.856Z,21.38
2022-08-22T03:06:46.538Z,22.40
2022-08-22T03:12:42.188Z,22.73
2022-08-22T03:17:51.582Z,21.73
2022-08-22T03:23:20.322Z,20.39
2022-08-22T03:28:37.234Z,22.05
2022-08-22T03:33:39.982Z,22.18
2022-08-22T03:39:16.486Z,22.19
2022-08-22T03:44:50.040Z,21.83
2022-08-22T03:50:11.238Z,20.92
2022-08-22T03:55:48.340Z,21.39
2022-08-22T04:00:59.401Z,21.34
2022-08-22T04:06:20.114Z,21.59
2022-08-22T04:12:01.805Z,22.08
2022-08-22T04:17:51.842Z,22.07
2022-08-22T04:23:32.026Z,22.22
2022-08-22T04:28:43.526Z,22.86
2022-08-22T04:34:02.490Z,22.65
2022-08-22T04:39:25.127Z,22.48
2022-08-22T04:44:56.233Z,22.85
2022-08-22T04:50:38.027Z,22.55
2022-08-22T04:56:21.106Z,23.08
2022-08-22T05:01:37.622Z,23.09
2022-08-22T05:06:44.492Z,22.83
2022-08-22T05:11:52.240Z,23.15
2022-08-22T05:16:57.585Z,23.44
2022-08-22T05:22:01.835Z,22.84
2022-08-22T05:27:15.318Z,23.30
2022-08-22T05:32:29.205Z,23.30
2022-08-22T05:37:41.145Z,23.18
2022-08-22T05:42:44.463Z,23.26
2022-08-22T05:47:56.913Z,22.60
2022-08-22T05:53:14.607Z,22.14
2022-08-22T05:58:30.160Z,22.46
2022-08-22T06:04:07.004Z,22.74
2022-08-22T06:09:14.374Z,22.72
2022-08-22T06:14:35.627Z,22.92
2022-08-22T06:19:45.089Z,22.32
2022-08-22T06:24:51.114Z,21.54
2022-08-22T06:30:01.518Z,22.06
2022-08-22T06:35:14.053Z,22.54
2022-08-22T06:40:18.122Z,22.79
2022-08-22T06:45:32.249Z,23.18
2022-08-22T06:50:38.532Z,23.83
2022-08-22T06:55:57.290Z,23.16
2022-08-22T07:01:11.709Z,23.28
2022-08-22T07:06:19.488Z,23.01
2022-08-22T07:11:38.139Z,23.43
2022-08-22T07:16:42.719Z,23.14
2022-08-22T07:21:47.997Z,23.84
2022-08-22T07:27:27.230Z,24.34
2022-08-22T07:32:52.781Z,24.95
2022-08-22T07:37:56.251Z,25.42
2022-08-22T07:43:26.396Z,26.31
2022-08-22T07:49:07.625Z,26.00
2022-08-22T07:54:12.991Z,25.48
2022-08-22T07:59:20.507Z,25.41
2022-08-22T08:04:28.389Z,26.61
2022-08-22T08:09:37.794Z,27.82
2022-08-22T08:14:44.212Z,28.16
2022-08-22T08:19:47.424Z,28.73
2022-08-22T08:24:51.446Z,28.95
2022-08-22T08:30:02.505Z,29.11
2022-08-22T08:35:20.455Z,30.22
2022-08-22T08:40:41.090Z,30.77
2022-08-22T08:46:03.809Z,30.86
2022-08-22T08:51:16.936Z,30.98
2022-08-22T08:56:59.748Z,31.30
2022-08-22T09:02:05.541Z,31.87
2022-08-22T09:07:45.470Z,31.73
2022-08-22T09:13:13.608Z,32.91
2022-08-22T09:18:54.212Z,32.42
2022-08-22T09:24:18.280Z,33.70
2022-08-22T09:29:21.529Z,33.68
2022-08-22T09:34:41.774Z,34.51
2022-08-22T09:40:18.870Z,35.30
2022-08-22T09:45:45.499Z,35.30
2022-08-22T09:51:08.439Z,35.80
2022-08-22T09:56:19.467Z,36.44
2022-08-22T10:01:46.683Z,36.37
2022-08-22T10:07:11.717Z,36.12
2022-08-22T10:12:30.555Z,37.78
2022-08-22T10:17:44.920Z,37.79
2022-08-22T10:23:08.232Z,37.13
2022-08-22T10:28:33.980Z,37.08
2022-08-22T10:33:47.371Z,37.35
2022-08-22T10:38:59.089Z,37.49
2022-08-22T10:44:27.278Z,38.66
2022-08-22T10:49:51.158Z,38.98
2022-08-22T10:55:12.726Z,38.74
2022-08-22T11:00:35.512Z,39.10
2022-08-22T11:05:42.793Z,36.35
2022-08-22T11:11:04.187Z,37.68
2022-08-22T11:16:13.349Z,38.76
2022-08-22T11:21:24.772Z,36.50
2022-08-22T11:26:46.711Z,33.15
2022-08-22T11:32:17.657Z,31.98
2022-08-22T11:37:43.323Z,32.47
2022-08-22T11:43:12.000Z,30.51
2022-08-22T11:48:39.288Z,35.85
2022-08-22T11:54:06.467Z,37.79
2022-08-22T11:59:12.114Z,38.94
2022-08-22T12:04:30.872Z,39.10
2022-08-22T12:09:52.033Z,39.34
2022-08-22T12:15:09.182Z,40.55
2022-08-22T12:20:16.621Z,41.34
2022-08-22T12:25:34.866Z,36.98
2022-08-22T12:30:54.757Z,33.99
2022-08-22T12:36:18.454Z,32.94
2022-08-22T12:41:57.930Z,36.20
2022-08-22T12:47:17.318Z,38.13
2022-08-22T12:52:36.555Z,39.56
2022-08-22T12:57:50.527Z,39.16
2022-08-22T13:02:59.276Z,38.59
2022-08-22T13:08:06.412Z,39.68
2022-08-22T13:13:14.571Z,40.38
2022-08-22T13:18:29.697Z,40.53
2022-08-22T13:23:44.019Z,39.84
2022-08-22T13:29:24.125Z,40.47
2022-08-22T13:34:34.841Z,41.31
2022-08-22T13:39:46.967Z,41.26
2022-08-22T13:44:56.697Z,39.37
2022-08-22T13:50:23.248Z,38.12
2022-08-22T13:55:34.242Z,34.26
2022-08-22T14:00:57.732Z,37.22
2022-08-22T14:06:35.540Z,38.36
2022-08-22T14:11:50.823Z,33.89
2022-08-22T14:16:55.793Z,33.02
2022-08-22T14:21:59.716Z,32.60
2022-08-22T14:27:13.328Z,31.63
2022-08-22T14:32:26.743Z,31.51
2022-08-22T14:37:38.863Z,31.42
2022-08-22T14:42:51.290Z,30.75
2022-08-22T14:48:30.636Z,30.50
2022-08-22T14:53:37.504Z,30.38
2022-08-22T14:59:02.742Z,32.56
2022-08-22T15:04:10.692Z,33.32
2022-08-22T15:09:49.623Z,34.08
2022-08-22T15:15:06.791Z,34.35
2022-08-22T15:20:15.329Z,34.43
2022-08-22T15:25:37.844Z,33.80
2022-08-22T15:30:54.151Z,33.82
2022-08-22T15:36:11.451Z,32.72
2022-08-22T15:41:36.583Z,32.52
2022-08-22T15:46:56.153Z,32.27
2022-08-22T15:52:03.013Z,31.39
2022-08-22T15:57:11.295Z,30.96
2022-08-22T16:02:23.821Z,30.59
2022-08-22T16:07:37.705Z,30.95
2022-08-22T16:13:07.910Z,30.97
2022-08-22T16:18:35.694Z,31.09
2022-08-22T16:23:58.506Z,30.70
2022-08-22T16:29:18.072Z,30.35
2022-08-22T16:34:39.308Z,29.79
2022-08-22T16:39:52.398Z,29.85
2022-08-22T16:45:05.164Z,29.66
2022-08-22T16:50:22.523Z,29.64
2022-08-22T16:55:30.819Z,29.74
2022-08-22T17:00:49.712Z,29.87
2022-08-22T17:06:00.492Z,29.60
2022-08-22T17:11:27.611Z,29.53
2022-08-22T17:17:07.786Z,29.51
2022-08-22T17:22:20.110Z,29.35
2022-08-22T17:27:38.595Z,28.89
2022-08-22T17:32:59.847Z,28.97
2022-08-22T17:38:23.167Z,28.63
2022-08-22T17:43:52.579Z,28.76
2022-08-22T17:48:55.250Z,28.72
2022-08-22T17:54:05.983Z,28.65
2022-08-22T17:59:21.199Z,28.51
2022-08-22T18:04:31.307Z,28.15
2022-08-22T18:10:03.300Z,28.01
2022-08-22T18:15:20.864Z,27.96
2022-08-22T18:20:35.282Z,27.79
2022-08-22T18:25:58.488Z,27.89
2022-08-22T18:31:09.526Z,27.56
2022-08-22T18:36:21.471Z,27.44
2022-08-22T18:41:36.028Z,27.31
2022-08-22T18:46:39.212Z,26.68
2022-08-22T18:51:42.013Z,26.80
2022-08-22T18:57:05.691Z,26.91
2022-08-22T19:02:14.787Z,27.10
2022-08-22T19:08:00.093Z,27.21
2022-08-22T19:13:53.143Z,26.89
2022-08-22T19:19:01.650Z,27.18
2022-08-22T19:24:08.055Z,27.25
2022-08-22T19:29:16.483Z,27.33
2022-08-22T19:34:25.176Z,27.29
2022-08-22T19:39:43.040Z,27.26
2022-08-22T19:44:49.438Z,27.21
2022-08-22T19:49:54.847Z,26.92
2022-08-22T19:55:28.736Z,26.94
2022-08-22T20:00:41.310Z,26.53
2022-08-22T20:06:33.600Z,25.88
2022-08-22T20:11:42.418Z,26.19
2022-08-22T20:17:06.187Z,26.13
2022-08-22T20:22:31.366Z,26.31
2022-08-22T20:27:48.036Z,26.50
2022-08-22T20:32:58.284Z,26.23
2022-08-22T20:38:11.385Z,26.02
2022-08-22T20:43:28.442Z,26.02
2022-08-22T20:48:41.372Z,26.33
2022-08-22T20:53:54.734Z,26.30
2022-08-22T20:59:01.032Z,25.54
2022-08-22T21:04:05.059Z,25.50
2022-08-22T21:09:38.657Z,26.02
2022-08-22T21:14:46.834Z,26.24
2022-08-22T21:19:49.812Z,25.01
2022-08-22T21:24:53.903Z,24.87
2022-08-22T21:29:57.988Z,24.33
2022-08-22T21:35:02.085Z,24.74
2022-08-22T21:40:10.577Z,24.50
2022-08-22T21:45:41.006Z,24.84
2022-08-22T21:50:43.905Z,24.39
2022-08-22T21:55:48.028Z,24.83
2022-08-22T22:01:02.283Z,24.42
2022-08-22T22:06:06.761Z,24.44
2022-08-22T22:11:13.656Z,24.52
2022-08-22T22:16:27.272Z,24.75
2022-08-22T22:21:29.740Z,24.15
2022-08-22T22:26:32.556Z,24.22
2022-08-22T22:31:34.987Z,24.11
2022-08-22T22:36:37.614Z,23.58
2022-08-22T22:41:40.202Z,23.13
2022-08-22T22:46:42.689Z,23.14
2022-08-22T22:51:45.380Z,23.67
2022-08-22T22:56:48.226Z,23.96
2022-08-22T23:02:07.199Z,24.80
2022-08-22T23:07:11.100Z,25.00
2022-08-22T23:12:14.965Z,25.08
2022-08-22T23:17:18.077Z,25.27
2022-08-22T23:22:20.592Z,24.15
2022-08-22T23:27:23.289Z,22.77
2022-08-22T23:32:25.752Z,22.30
2022-08-22T23:37:28.225Z,21.86
2022-08-22T23:42:30.705Z,21.69
2022-08-22T23:47:33.151Z,21.53
2022-08-22T23:52:35.643Z,21.53
2022-08-22T23:57:38.088Z,21.45
